Time;durP1;ratioP1;P1;durP2;ratioP2;P2;SDS_P1;SDS_P2;PMS_P1;PMS_P2;Temp;Humidity;BMP_temperature;BMP_pressure;BME280_temperature;BME280_humidity;BME280_pressure;Samples;Min_cycle;Max_cycle;Signal;HPM_P1;HPM_P2
2022/06/18 00:00:26;;;;;;;4.78;3.03;;;22.30;94.20;;;;;;4823951;29;20099;-62
2022/06/18 00:02:52;;;;;;;8.90;3.28;;;22.20;94.50;;;;;;4824360;29;20054;-61
2022/06/18 00:05:20;;;;;;;5.78;3.20;;;22.20;94.50;;;;;;4807873;29;20393;-61
2022/06/18 00:07:51;;;;;;;5.15;3.38;;;22.20;94.70;;;;;;4823562;29;20058;-61
2022/06/18 00:10:30;;;;;;;6.95;3.67;;;22.20;94.50;;;;;;4824051;29;20481;-60
2022/06/18 00:15:51;;;;;;;4.25;2.97;;;22.10;94.70;;;;;;4824244;29;20166;-60
2022/06/18 00:18:17;;;;;;;8.48;3.65;;;22.10;94.60;;;;;;4807640;29;20514;-60
2022/06/18 00:20:42;;;;;;;9.27;3.50;;;22.10;94.90;;;;;;4824242;29;20345;-59
2022/06/18 00:23:14;;;;;;;10.93;3.70;;;22.10;94.80;;;;;;4807574;29;20062;-62
2022/06/18 00:25:52;;;;;;;6.43;3.92;;;22.00;94.90;;;;;;4823862;29;20053;-61
2022/06/18 00:28:21;;;;;;;5.68;3.72;;;22.00;94.70;;;;;;4823693;29;20099;-60
2022/06/18 00:30:48;;;;;;;7.43;3.42;;;22.00;94.90;;;;;;4823898;29;20050;-60
2022/06/18 00:33:14;;;;;;;7.05;3.50;;;22.00;94.90;;;;;;4807533;29;20485;-60
2022/06/18 00:35:41;;;;;;;6.20;3.60;;;22.00;95.10;;;;;;4807544;29;20142;-60
2022/06/18 00:38:13;;;;;;;6.43;3.92;;;21.90;94.90;;;;;;4823633;29;20054;-62
2022/06/18 00:40:41;;;;;;;5.85;3.97;;;21.90;95.00;;;;;;4822390;29;20064;-60
2022/06/18 00:43:23;;;;;;;6.45;3.47;;;21.90;95.10;;;;;;4823691;29;20058;-64
2022/06/18 00:45:52;;;;;;;6.05;3.60;;;21.80;95.30;;;;;;4823621;29;20061;-59
2022/06/18 00:48:40;;;;;;;6.00;3.97;;;21.80;95.20;;;;;;4823263;29;20055;-60
2022/06/18 00:51:37;;;;;;;5.15;3.80;;;21.70;95.70;;;;;;4807528;29;20497;-59
2022/06/18 00:54:14;;;;;;;8.32;4.32;;;21.70;95.50;;;;;;4823783;29;20460;-60
2022/06/18 00:57:22;;;;;;;7.90;3.88;;;21.70;95.60;;;;;;4807048;29;20050;-60
2022/06/18 01:00:08;;;;;;;8.35;4.07;;;21.60;95.80;;;;;;4823313;29;20129;-59
2022/06/18 01:02:37;;;;;;;7.05;3.92;;;21.50;96.00;;;;;;4822827;29;20054;-60
2022/06/18 01:05:15;;;;;;;6.55;4.15;;;21.50;95.90;;;;;;4823114;29;20508;-60
2022/06/18 01:07:42;;;;;;;5.93;4.25;;;21.40;96.10;;;;;;4823125;29;20057;-59
2022/06/18 01:10:19;;;;;;;9.55;5.20;;;21.40;96.10;;;;;;4806942;29;20110;-62
2022/06/18 01:12:44;;;;;;;7.90;4.57;;;21.40;96.20;;;;;;4823439;29;20046;-60
2022/06/18 01:15:11;;;;;;;8.25;4.60;;;21.40;96.20;;;;;;4823022;29;20057;-60
2022/06/18 01:17:39;;;;;;;7.78;4.80;;;21.30;96.40;;;;;;4822552;29;20511;-60
2022/06/18 01:20:09;;;;;;;6.28;4.13;;;21.30;96.10;;;;;;4823209;29;20058;-61
2022/06/18 01:22:54;;;;;;;10.20;5.18;;;21.30;96.40;;;;;;4822569;29;20057;-60
2022/06/18 01:25:22;;;;;;;7.60;5.22;;;21.30;96.60;;;;;;4822189;29;20404;-60
2022/06/18 01:27:48;;;;;;;7.53;4.70;;;21.20;97.10;;;;;;4821554;29;20535;-60
2022/06/18 01:30:20;;;;;;;7.03;5.05;;;21.20;96.90;;;;;;4823019;29;20103;-61
2022/06/18 01:32:48;;;;;;;7.07;5.32;;;21.20;96.80;;;;;;4822778;29;20549;-60
2022/06/18 01:35:14;;;;;;;8.30;5.40;;;21.20;96.80;;;;;;4822842;29;20096;-60
2022/06/18 01:37:40;;;;;;;6.50;5.15;;;21.10;97.10;;;;;;4822422;29;20433;-60
2022/06/18 01:40:09;;;;;;;9.68;5.43;;;21.10;97.20;;;;;;4822729;29;20153;-60
2022/06/18 01:42:47;;;;;;;9.00;5.80;;;21.10;97.20;;;;;;4822418;29;20119;-60
2022/06/18 01:45:19;;;;;;;9.30;5.95;;;21.10;97.40;;;;;;4823031;29;20050;-60
2022/06/18 01:47:51;;;;;;;9.05;5.95;;;21.00;97.40;;;;;;4805924;29;20527;-60
2022/06/18 01:50:28;;;;;;;8.52;5.88;;;21.00;97.50;;;;;;4822615;29;20050;-61
2022/06/18 01:53:03;;;;;;;7.20;5.80;;;21.00;97.40;;;;;;4822598;29;20139;-60
2022/06/18 01:55:33;;;;;;;10.63;6.15;;;20.90;97.90;;;;;;4822468;29;20050;-60
2022/06/18 01:58:09;;;;;;;9.40;6.05;;;20.90;97.70;;;;;;4822827;29;20042;-62
2022/06/18 02:00:35;;;;;;;7.07;5.82;;;20.90;98.20;;;;;;4822350;29;20050;-60
2022/06/18 02:03:02;;;;;;;11.98;6.60;;;20.90;98.10;;;;;;4822309;29;20446;-60
2022/06/18 02:05:29;;;;;;;10.93;6.78;;;20.90;98.10;;;;;;4822278;29;20069;-64
2022/06/18 02:07:54;;;;;;;8.18;6.60;;;20.80;98.40;;;;;;4806371;29;20058;-60
2022/06/18 02:10:25;;;;;;;8.65;6.50;;;20.80;98.70;;;;;;4822454;29;20057;-59
2022/06/18 02:12:52;;;;;;;10.93;6.78;;;20.80;98.60;;;;;;4822071;29;20076;-60
2022/06/18 02:15:31;;;;;;;11.38;6.45;;;20.70;98.90;;;;;;4822346;29;20058;-60
2022/06/18 02:18:03;;;;;;;11.55;6.90;;;20.70;99.00;;;;;;4822437;29;20123;-60
2022/06/18 02:20:31;;;;;;;9.20;7.10;;;20.60;99.60;;;;;;4822384;29;20050;-61
2022/06/18 02:22:57;;;;;;;9.80;7.55;;;20.60;99.70;;;;;;4805762;29;20058;-61
2022/06/18 02:25:26;;;;;;;11.65;7.93;;;20.50;99.80;;;;;;4822500;29;20093;-61
2022/06/18 02:27:57;;;;;;;13.75;8.23;;;20.50;99.90;;;;;;4822062;29;20057;-60
2022/06/18 02:30:26;;;;;;;10.50;8.50;;;20.40;99.90;;;;;;4822546;29;20054;-60
2022/06/18 02:33:13;;;;;;;10.88;8.35;;;20.30;99.90;;;;;;4822141;29;20057;-60
2022/06/18 02:35:41;;;;;;;12.30;8.35;;;20.30;99.90;;;;;;4822148;29;20046;-61
2022/06/18 02:38:18;;;;;;;10.23;8.07;;;20.30;99.90;;;;;;4806054;29;20043;-61
2022/06/18 02:40:45;;;;;;;9.05;7.97;;;20.20;99.90;;;;;;4807008;29;20093;-62
2022/06/18 02:43:11;;;;;;;11.00;8.98;;;20.20;99.90;;;;;;4825460;29;20407;-60
2022/06/18 02:45:39;;;;;;;12.02;8.68;;;20.20;99.90;;;;;;4825313;29;20055;-60
2022/06/18 02:48:07;;;;;;;12.35;9.80;;;20.10;99.90;;;;;;4825792;29;20066;-60
2022/06/18 02:50:36;;;;;;;14.68;9.40;;;20.00;99.90;;;;;;4825816;29;20093;-60
2022/06/18 02:53:02;;;;;;;14.25;8.55;;;20.00;99.90;;;;;;4825484;29;20046;-61
2022/06/18 02:55:30;;;;;;;18.00;9.85;;;20.00;99.90;;;;;;4809529;29;20050;-60
2022/06/18 02:58:22;;;;;;;12.52;9.35;;;19.90;99.90;;;;;;4809176;29;20054;-61
2022/06/18 03:00:55;;;;;;;18.67;9.93;;;19.90;99.90;;;;;;4825262;29;20062;-59
2022/06/18 03:03:24;;;;;;;11.75;9.52;;;19.80;99.90;;;;;;4825175;29;20079;-60
2022/06/18 03:05:52;;;;;;;11.98;9.55;;;19.70;99.90;;;;;;4825188;29;20046;-60
2022/06/18 03:08:20;;;;;;;19.58;9.70;;;19.70;99.90;;;;;;4825344;29;20463;-61
2022/06/18 03:13:30;;;;;;;13.88;10.35;;;19.70;99.90;;;;;;4825119;29;20473;-62
2022/06/18 03:15:56;;;;;;;15.18;10.02;;;19.60;99.90;;;;;;4808863;29;20051;-61
2022/06/18 03:18:24;;;;;;;15.15;10.40;;;19.60;99.90;;;;;;4825360;29;20043;-61
2022/06/18 03:21:02;;;;;;;15.05;10.75;;;19.50;99.90;;;;;;4824878;29;20133;-61
2022/06/18 03:23:29;;;;;;;14.13;10.65;;;19.50;99.90;;;;;;4808571;29;20124;-60
2022/06/18 03:25:54;;;;;;;13.85;10.77;;;19.40;99.90;;;;;;4824668;29;20038;-61
2022/06/18 03:28:24;;;;;;;17.67;10.68;;;19.40;99.90;;;;;;4824905;29;20110;-61
2022/06/18 03:30:50;;;;;;;19.38;11.93;;;19.30;99.90;;;;;;4824620;29;20528;-60
2022/06/18 03:33:16;;;;;;;19.35;11.65;;;19.20;99.90;;;;;;4824952;29;20054;-61
2022/06/18 03:35:45;;;;;;;17.30;11.60;;;19.20;99.90;;;;;;4824646;29;20042;-61
2022/06/18 03:38:12;;;;;;;19.40;12.68;;;19.20;99.90;;;;;;4825053;29;20057;-60
2022/06/18 03:40:37;;;;;;;18.73;12.57;;;19.10;99.90;;;;;;4824854;29;20054;-61
2022/06/18 03:43:03;;;;;;;21.15;13.32;;;19.00;99.90;;;;;;4824609;29;20122;-61
2022/06/18 03:45:31;;;;;;;18.02;12.25;;;18.90;99.90;;;;;;4824710;29;20047;-61
2022/06/18 03:47:58;;;;;;;16.95;13.52;;;18.90;99.90;;;;;;4824776;29;20050;-60
2022/06/18 03:50:24;;;;;;;20.65;14.05;;;18.90;99.90;;;;;;4824705;29;20055;-60
2022/06/18 03:52:49;;;;;;;16.73;13.02;;;18.80;99.90;;;;;;4824030;29;20117;-60
2022/06/18 03:55:16;;;;;;;16.85;12.65;;;18.70;99.90;;;;;;4824459;29;20374;-66
2022/06/18 03:57:42;;;;;;;18.60;14.25;;;18.70;99.90;;;;;;4808303;29;20123;-60
2022/06/18 04:00:16;;;;;;;21.92;14.43;;;18.70;99.90;;;;;;4824514;29;20412;-60
2022/06/18 04:02:42;;;;;;;30.30;15.75;;;18.70;99.90;;;;;;4824487;29;20054;-60
2022/06/18 04:05:10;;;;;;;18.10;14.07;;;18.70;99.90;;;;;;4824189;29;20392;-60
2022/06/18 04:07:37;;;;;;;22.17;14.77;;;18.70;99.90;;;;;;4807873;29;20420;-60
2022/06/18 04:10:04;;;;;;;19.85;15.20;;;18.60;99.90;;;;;;4807772;29;20043;-61
2022/06/18 04:12:30;;;;;;;22.50;15.13;;;18.60;99.90;;;;;;4808144;29;20137;-60
2022/06/18 04:14:56;;;;;;;23.08;14.80;;;18.60;99.90;;;;;;4823858;29;20154;-67
2022/06/18 04:17:22;;;;;;;19.02;14.30;;;18.60;99.90;;;;;;4824136;29;20047;-61
2022/06/18 04:19:47;;;;;;;25.35;14.15;;;18.60;99.90;;;;;;4824299;29;20073;-61
2022/06/18 04:22:13;;;;;;;24.77;13.77;;;18.60;99.90;;;;;;4824218;29;20051;-61
2022/06/18 04:24:39;;;;;;;21.23;14.07;;;18.60;99.90;;;;;;4824098;29;20065;-60
2022/06/18 04:27:06;;;;;;;20.60;14.85;;;18.70;99.90;;;;;;4823555;29;20073;-60
2022/06/18 04:29:32;;;;;;;22.02;14.63;;;18.70;99.90;;;;;;4823969;29;20121;-60
2022/06/18 04:31:59;;;;;;;20.30;14.77;;;18.80;99.90;;;;;;4823691;29;20150;-60
2022/06/18 04:34:25;;;;;;;20.13;14.70;;;18.80;99.90;;;;;;4823684;29;20054;-60
2022/06/18 04:36:51;;;;;;;23.98;14.00;;;18.90;99.90;;;;;;4792270;29;20050;-60
2022/06/18 04:39:17;;;;;;;21.42;14.43;;;18.90;99.90;;;;;;4822842;29;20058;-60
2022/06/18 04:41:43;;;;;;;21.80;13.68;;;19.00;99.90;;;;;;4823821;29;20050;-63
2022/06/18 04:44:09;;;;;;;23.90;14.60;;;19.10;99.90;;;;;;4823482;29;20054;-61
2022/06/18 04:46:34;;;;;;;18.70;13.45;;;19.20;99.90;;;;;;4823729;29;20046;-61
2022/06/18 04:49:00;;;;;;;24.30;14.38;;;19.30;99.90;;;;;;4806872;29;20061;-63
2022/06/18 04:51:26;;;;;;;19.60;12.93;;;19.40;99.90;;;;;;4823886;29;20134;-61
2022/06/18 04:53:52;;;;;;;21.15;13.00;;;19.70;99.90;;;;;;4823404;29;20053;-61
2022/06/18 04:56:18;;;;;;;20.83;12.70;;;20.10;99.90;;;;;;4823544;29;20134;-61
2022/06/18 04:58:44;;;;;;;19.88;12.90;;;20.50;99.90;;;;;;4823686;29;20137;-63
2022/06/18 05:01:15;;;;;;;18.75;11.80;;;20.90;99.90;;;;;;4807127;29;20511;-61
2022/06/18 05:03:40;;;;;;;25.90;11.50;;;21.40;99.90;;;;;;4806793;29;20057;-61
2022/06/18 05:06:06;;;;;;;25.15;11.77;;;21.70;99.90;;;;;;4822988;29;20046;-61
2022/06/18 05:08:32;;;;;;;20.50;11.65;;;22.10;99.90;;;;;;4823485;29;20053;-61
2022/06/18 05:10:58;;;;;;;15.32;10.30;;;22.60;99.90;;;;;;4807006;29;20046;-61
2022/06/18 05:13:24;;;;;;;21.05;10.63;;;23.00;99.90;;;;;;4823619;29;20053;-61
2022/06/18 05:15:53;;;;;;;17.73;9.68;;;23.50;99.90;;;;;;4823458;29;20277;-61
2022/06/18 05:18:20;;;;;;;18.92;9.90;;;23.80;99.90;;;;;;4822514;29;20093;-61
2022/06/18 05:20:52;;;;;;;21.70;10.18;;;24.10;99.90;;;;;;4823262;29;20058;-61
2022/06/18 05:23:19;;;;;;;20.20;10.05;;;24.50;99.90;;;;;;4822972;29;20145;-60
2022/06/18 05:25:46;;;;;;;13.15;8.93;;;24.70;99.80;;;;;;4823325;29;20131;-61
2022/06/18 05:28:12;;;;;;;16.48;9.50;;;24.90;99.90;;;;;;4822760;29;20096;-62
2022/06/18 05:30:39;;;;;;;18.17;9.75;;;25.20;99.20;;;;;;4823077;29;20059;-61
2022/06/18 05:33:06;;;;;;;18.10;9.15;;;25.30;98.70;;;;;;4822925;29;20058;-61
2022/06/18 05:35:35;;;;;;;16.30;8.75;;;25.50;98.30;;;;;;4806270;29;20442;-62
2022/06/18 05:38:01;;;;;;;19.20;9.75;;;25.80;98.50;;;;;;4822673;29;20058;-62
2022/06/18 05:40:27;;;;;;;18.40;9.00;;;25.90;97.90;;;;;;4822670;29;20058;-66
2022/06/18 05:42:54;;;;;;;16.13;9.45;;;26.00;97.20;;;;;;4805771;29;20134;-59
2022/06/18 05:45:21;;;;;;;12.85;9.05;;;26.00;97.10;;;;;;4822623;29;20382;-59
2022/06/18 05:47:48;;;;;;;22.92;9.27;;;25.90;97.00;;;;;;4806327;29;20065;-60
2022/06/18 05:50:16;;;;;;;17.70;8.95;;;25.80;97.30;;;;;;4806365;29;20401;-60
2022/06/18 05:52:42;;;;;;;14.68;8.38;;;26.00;96.80;;;;;;4822909;29;20544;-60
2022/06/18 05:55:08;;;;;;;15.52;8.38;;;26.30;96.80;;;;;;4806251;29;20089;-61
2022/06/18 05:57:34;;;;;;;16.33;8.20;;;26.40;96.50;;;;;;4822800;29;20133;-60
2022/06/18 06:00:07;;;;;;;15.68;8.02;;;26.60;96.20;;;;;;4822834;29;20133;-67
2022/06/18 06:02:32;;;;;;;12.93;7.78;;;26.90;95.60;;;;;;4822625;29;20054;-61
2022/06/18 06:04:58;;;;;;;16.20;8.27;;;27.00;95.70;;;;;;4822756;29;20130;-60
2022/06/18 06:07:24;;;;;;;14.77;7.40;;;27.10;95.30;;;;;;4822172;29;20046;-60
2022/06/18 06:12:35;;;;;;;16.92;7.72;;;27.20;95.20;;;;;;4822620;29;20092;-60
2022/06/18 06:15:02;;;;;;;12.30;7.30;;;27.20;95.00;;;;;;4807792;29;20513;-60
2022/06/18 06:17:28;;;;;;;12.20;7.00;;;27.30;95.50;;;;;;4809884;29;20084;-61
2022/06/18 06:20:04;;;;;;;11.77;6.13;;;27.40;94.80;;;;;;4825899;29;20054;-61
2022/06/18 06:22:30;;;;;;;11.65;6.32;;;27.40;94.40;;;;;;4825970;29;20058;-62
2022/06/18 06:24:56;;;;;;;14.07;6.10;;;27.40;94.40;;;;;;4825990;29;20073;-61
2022/06/18 06:27:21;;;;;;;10.50;6.43;;;27.40;94.50;;;;;;4825582;29;20053;-61
2022/06/18 06:29:47;;;;;;;15.77;6.43;;;27.40;94.20;;;;;;4809308;29;20102;-61
2022/06/18 06:32:13;;;;;;;15.73;6.30;;;27.10;94.40;;;;;;4825609;29;20159;-61
2022/06/18 06:34:38;;;;;;;13.15;6.43;;;27.10;94.90;;;;;;4825955;29;20055;-63
2022/06/18 06:37:04;;;;;;;13.23;6.15;;;27.20;94.70;;;;;;4809972;29;20050;-64
2022/06/18 06:39:30;;;;;;;13.30;6.03;;;27.60;94.70;;;;;;4825686;29;20061;-62
2022/06/18 06:41:56;;;;;;;13.73;5.57;;;28.00;94.30;;;;;;4826041;29;20493;-61
2022/06/18 06:44:22;;;;;;;11.40;5.30;;;28.00;94.00;;;;;;4825600;29;20477;-62
2022/06/18 06:46:48;;;;;;;11.52;4.95;;;28.20;93.50;;;;;;4809072;29;20050;-60
2022/06/18 06:49:14;;;;;;;13.23;4.97;;;28.60;93.50;;;;;;4825501;29;20050;-60
2022/06/18 06:51:40;;;;;;;10.77;4.80;;;28.60;92.70;;;;;;4809800;29;20114;-61
2022/06/18 06:54:07;;;;;;;13.73;4.80;;;28.80;92.90;;;;;;4779556;29;20054;-61
2022/06/18 06:59:17;;;;;;;13.07;5.20;;;29.30;92.60;;;;;;4825235;29;20057;-61
2022/06/18 07:01:43;;;;;;;10.10;4.22;;;29.60;92.50;;;;;;4825172;29;20046;-61
2022/06/18 07:04:11;;;;;;;9.05;3.92;;;29.50;92.40;;;;;;4809178;29;20383;-63
2022/06/18 07:06:37;;;;;;;11.60;4.70;;;29.60;92.50;;;;;;4825261;29;20138;-60
2022/06/18 07:09:05;;;;;;;11.93;4.50;;;29.70;92.30;;;;;;4825129;29;20141;-61
2022/06/18 07:11:33;;;;;;;10.40;4.07;;;29.90;92.30;;;;;;4824808;29;20509;-61
2022/06/18 07:13:59;;;;;;;12.27;4.10;;;29.80;92.20;;;;;;4808825;29;20058;-61
2022/06/18 07:16:25;;;;;;;10.45;4.45;;;30.10;91.90;;;;;;4808504;29;20058;-59
2022/06/18 07:18:53;;;;;;;10.48;4.07;;;30.40;91.50;;;;;;4825511;29;20141;-61
2022/06/18 07:21:21;;;;;;;10.45;4.18;;;30.70;91.10;;;;;;4824673;29;20050;-63
2022/06/18 07:23:48;;;;;;;10.50;3.92;;;30.70;91.10;;;;;;4824696;29;20058;-62
2022/06/18 07:26:16;;;;;;;8.65;3.97;;;31.00;90.90;;;;;;4824145;29;20295;-61
2022/06/18 07:28:43;;;;;;;10.02;4.15;;;31.10;90.70;;;;;;4825049;29;20046;-60
2022/06/18 07:31:15;;;;;;;11.23;3.90;;;30.90;90.30;;;;;;4824993;29;20153;-61
2022/06/18 07:33:42;;;;;;;9.90;4.18;;;30.90;90.40;;;;;;4824832;29;20050;-60
2022/06/18 07:36:08;;;;;;;11.10;4.00;;;30.70;90.40;;;;;;4825325;29;20355;-61
2022/06/18 07:38:34;;;;;;;8.00;3.67;;;30.80;90.40;;;;;;4824527;29;20043;-63
2022/06/18 07:41:00;;;;;;;10.00;3.75;;;30.90;90.90;;;;;;4824770;29;20214;-61
2022/06/18 07:43:40;;;;;;;7.10;3.03;;;30.90;90.20;;;;;;4808398;29;20058;-62
2022/06/18 07:46:08;;;;;;;8.45;3.05;;;31.10;90.00;;;;;;4808799;29;20110;-61
2022/06/18 07:48:34;;;;;;;7.95;2.97;;;31.20;90.10;;;;;;4824488;29;20500;-60
2022/06/18 07:51:01;;;;;;;7.07;2.78;;;31.30;90.30;;;;;;4824721;29;20054;-61
2022/06/18 07:53:27;;;;;;;7.05;2.78;;;31.40;89.60;;;;;;4824346;29;20396;-61
2022/06/18 07:55:57;;;;;;;9.05;2.75;;;31.50;89.80;;;;;;4824643;29;20122;-60
2022/06/18 07:58:23;;;;;;;7.13;2.60;;;31.50;88.90;;;;;;4823515;29;20141;-60
2022/06/18 08:00:49;;;;;;;5.30;2.30;;;31.60;89.30;;;;;;4808529;29;20061;-59
2022/06/18 08:03:16;;;;;;;5.25;2.50;;;31.90;90.10;;;;;;4824480;29;20054;-60
2022/06/18 08:05:44;;;;;;;4.82;2.22;;;32.20;88.90;;;;;;4824315;29;20046;-60
2022/06/18 08:08:09;;;;;;;7.10;2.00;;;32.50;88.00;;;;;;4808063;29;20088;-60
2022/06/18 08:10:37;;;;;;;4.22;1.90;;;32.30;88.50;;;;;;4823733;29;20098;-61
2022/06/18 08:13:04;;;;;;;4.47;1.45;;;32.50;88.30;;;;;;4824349;29;20078;-60
2022/06/18 08:15:30;;;;;;;5.13;1.63;;;31.80;88.30;;;;;;4823979;29;20178;-61
2022/06/18 08:17:56;;;;;;;4.35;1.70;;;31.70;89.10;;;;;;4824219;29;20054;-60
2022/06/18 08:20:23;;;;;;;3.15;1.40;;;31.50;89.90;;;;;;4823502;29;20536;-60
2022/06/18 08:22:50;;;;;;;3.10;1.50;;;31.60;89.70;;;;;;4807773;29;20141;-60
2022/06/18 08:25:17;;;;;;;3.08;1.42;;;31.40;90.20;;;;;;4824095;29;20058;-62
2022/06/18 08:27:44;;;;;;;4.00;1.55;;;30.90;90.20;;;;;;4823528;29;20053;-60
2022/06/18 08:30:11;;;;;;;2.70;1.20;;;30.80;90.50;;;;;;4824213;29;20080;-61
2022/06/18 08:32:37;;;;;;;4.22;1.50;;;31.20;90.10;;;;;;4823629;29;20050;-60
2022/06/18 08:35:03;;;;;;;4.07;1.20;;;31.50;90.20;;;;;;4823946;29;20049;-61
2022/06/18 08:37:29;;;;;;;2.95;1.30;;;31.50;89.90;;;;;;4806579;29;20501;-60
2022/06/18 08:39:57;;;;;;;3.13;1.40;;;31.40;90.00;;;;;;4823388;29;20272;-61
2022/06/18 08:42:54;;;;;;;3.33;1.40;;;31.00;90.10;;;;;;4806452;29;20058;-64
2022/06/18 08:45:44;;;;;;;3.03;1.25;;;31.10;90.30;;;;;;4822427;29;20062;-62
2022/06/18 08:48:22;;;;;;;2.67;1.33;;;31.00;90.00;;;;;;4823749;29;20054;-61
2022/06/18 08:50:53;;;;;;;3.40;1.40;;;31.10;90.20;;;;;;4823706;29;20062;-61
2022/06/18 08:53:34;;;;;;;3.63;1.58;;;31.00;90.00;;;;;;4807382;29;20061;-60
2022/06/18 08:56:26;;;;;;;4.20;1.60;;;30.40;90.40;;;;;;4823699;29;20047;-61
2022/06/18 08:59:03;;;;;;;5.35;1.60;;;30.30;90.90;;;;;;4822898;29;20401;-62
2022/06/18 09:01:38;;;;;;;3.15;1.30;;;30.20;90.60;;;;;;4806831;29;20097;-63
2022/06/18 09:04:04;;;;;;;3.72;1.48;;;30.00;90.80;;;;;;4823817;29;20050;-61
2022/06/18 09:06:39;;;;;;;2.75;1.42;;;29.90;90.90;;;;;;4791937;29;20058;-60
2022/06/18 09:09:34;;;;;;;3.00;1.20;;;30.00;90.70;;;;;;4823825;29;20054;-61
2022/06/18 09:12:19;;;;;;;3.65;1.50;;;30.00;90.40;;;;;;4823520;29;20101;-61
2022/06/18 09:14:59;;;;;;;3.58;1.25;;;30.50;90.90;;;;;;4823221;29;20062;-61
2022/06/18 09:17:34;;;;;;;4.43;1.60;;;30.40;90.00;;;;;;4806817;29;20076;-60
2022/06/18 09:20:08;;;;;;;3.83;1.30;;;30.70;90.10;;;;;;4823458;29;20058;-61
2022/06/18 09:22:44;;;;;;;5.07;1.67;;;31.10;89.80;;;;;;4822891;29;20054;-61
2022/06/18 09:25:15;;;;;;;4.80;1.60;;;31.00;89.50;;;;;;4823036;29;20401;-61
2022/06/18 09:28:07;;;;;;;2.70;1.30;;;31.20;89.30;;;;;;4822798;29;20046;-61
2022/06/18 09:30:39;;;;;;;3.42;1.65;;;31.10;90.00;;;;;;4813025;29;20058;-61
2022/06/18 09:33:24;;;;;;;3.22;1.27;;;30.60;90.00;;;;;;4806648;29;20145;-59
2022/06/18 09:36:12;;;;;;;4.82;1.50;;;30.00;90.30;;;;;;4822734;29;20159;-60
2022/06/18 09:38:45;;;;;;;5.03;1.33;;;29.80;90.80;;;;;;4822369;29;20309;-61
2022/06/18 09:41:24;;;;;;;4.85;1.67;;;29.90;90.50;;;;;;4806392;29;20061;-64
2022/06/18 09:43:59;;;;;;;5.20;1.52;;;30.10;90.70;;;;;;4822402;29;20500;-60
2022/06/18 09:46:40;;;;;;;3.63;1.50;;;30.10;90.40;;;;;;4822649;29;20082;-61
2022/06/18 09:49:06;;;;;;;3.30;1.58;;;30.50;90.40;;;;;;4822366;29;20096;-63
2022/06/18 09:51:51;;;;;;;4.00;1.70;;;30.70;90.40;;;;;;4822815;29;20050;-61
2022/06/18 09:54:18;;;;;;;4.22;1.60;;;30.50;90.30;;;;;;4822686;29;20054;-65
2022/06/18 09:56:48;;;;;;;3.90;1.65;;;30.50;90.00;;;;;;4806330;29;20485;-61
2022/06/18 09:59:39;;;;;;;3.13;1.50;;;30.50;90.30;;;;;;4822749;29;20054;-62
2022/06/18 10:02:23;;;;;;;3.58;1.40;;;30.20;90.20;;;;;;4822781;29;20053;-62
2022/06/18 10:07:39;;;;;;;4.07;1.50;;;29.50;91.00;;;;;;4822304;29;20462;-61
2022/06/18 10:10:14;;;;;;;3.22;1.45;;;28.90;91.50;;;;;;4822692;29;20125;-61
2022/06/18 10:12:48;;;;;;;3.15;1.30;;;28.60;90.90;;;;;;4821548;29;20050;-61
2022/06/18 10:15:17;;;;;;;3.80;1.23;;;28.90;90.80;;;;;;4821324;29;20054;-64
2022/06/18 10:18:30;;;;;;;4.22;1.40;;;29.00;91.00;;;;;;4822179;29;20519;-60
2022/06/18 10:21:14;;;;;;;7.60;1.55;;;29.20;90.80;;;;;;4806101;29;20279;-61
2022/06/18 10:23:57;;;;;;;3.17;1.30;;;29.30;91.20;;;;;;4821772;29;20450;-61
2022/06/18 10:26:42;;;;;;;3.20;1.00;;;29.30;90.90;;;;;;4822348;29;20191;-63
2022/06/18 10:29:29;;;;;;;3.33;1.27;;;29.60;90.30;;;;;;4806241;29;20055;-61
2022/06/18 10:32:09;;;;;;;3.10;1.13;;;29.90;90.30;;;;;;4822085;29;20069;-62
2022/06/18 10:35:25;;;;;;;2.47;1.08;;;30.00;89.50;;;;;;4822392;29;20239;-60
2022/06/18 10:38:11;;;;;;;2.53;1.20;;;29.70;89.70;;;;;;4780712;29;20054;-62
2022/06/18 10:40:59;;;;;;;3.65;1.50;;;29.60;90.20;;;;;;4821772;29;20050;-61
2022/06/18 10:43:44;;;;;;;2.42;1.05;;;29.40;89.60;;;;;;4790573;29;20054;-61
2022/06/18 10:46:17;;;;;;;1.70;0.90;;;28.80;90.10;;;;;;4790788;29;20053;-61
2022/06/18 10:48:53;;;;;;;2.88;1.10;;;28.30;90.50;;;;;;4821596;29;20413;-61
2022/06/18 10:51:33;;;;;;;1.50;1.00;;;28.20;91.30;;;;;;4821926;29;20449;-61
2022/06/18 10:54:03;;;;;;;4.07;1.33;;;28.10;91.00;;;;;;4821986;29;20445;-60
2022/06/18 10:56:32;;;;;;;1.65;1.02;;;28.10;91.00;;;;;;4822178;29;20043;-62
2022/06/18 10:59:03;;;;;;;3.15;0.90;;;28.20;90.40;;;;;;4821744;29;20061;-62
2022/06/18 11:01:46;;;;;;;4.63;1.10;;;28.20;90.80;;;;;;4822792;29;20057;-62
2022/06/18 11:04:25;;;;;;;2.10;1.02;;;28.50;91.20;;;;;;4809269;29;20065;-65
2022/06/18 11:06:58;;;;;;;2.42;0.95;;;28.70;90.30;;;;;;4808971;29;20042;-61
2022/06/18 11:09:27;;;;;;;4.53;1.23;;;28.80;90.80;;;;;;4825144;29;20059;-61
2022/06/18 11:11:55;;;;;;;1.80;0.98;;;28.60;90.80;;;;;;4824742;29;20065;-61
2022/06/18 11:14:21;;;;;;;5.30;1.40;;;28.60;91.40;;;;;;4825174;29;20054;-60
2022/06/18 11:16:51;;;;;;;2.17;0.98;;;28.40;90.70;;;;;;4824692;29;20049;-64
2022/06/18 11:19:24;;;;;;;1.92;1.10;;;28.50;90.40;;;;;;4824879;29;20046;-62
2022/06/18 11:21:50;;;;;;;2.30;1.17;;;28.60;90.90;;;;;;4822968;29;20054;-66
2022/06/18 11:24:35;;;;;;;3.65;1.33;;;28.60;90.80;;;;;;4824246;29;20262;-61
2022/06/18 11:27:05;;;;;;;5.38;1.60;;;28.20;91.20;;;;;;4825062;29;20434;-61
2022/06/18 11:29:47;;;;;;;5.13;1.40;;;28.20;91.50;;;;;;4808681;29;20055;-63
2022/06/18 11:32:25;;;;;;;4.47;1.45;;;28.00;91.70;;;;;;4824749;29;20512;-64
2022/06/18 11:35:09;;;;;;;4.35;1.60;;;27.90;91.70;;;;;;4824708;29;20557;-61
2022/06/18 11:37:35;;;;;;;6.82;2.13;;;27.30;91.70;;;;;;4808798;29;20347;-62
2022/06/18 11:40:07;;;;;;;4.45;1.60;;;27.30;91.60;;;;;;4793465;29;20054;-61
2022/06/18 11:42:56;;;;;;;7.50;1.60;;;27.20;91.60;;;;;;4824514;29;20054;-61
2022/06/18 11:45:43;;;;;;;3.67;1.48;;;27.40;91.80;;;;;;4824510;29;20133;-63
2022/06/18 11:48:37;;;;;;;3.60;1.42;;;27.10;91.30;;;;;;4824524;29;20086;-62
2022/06/18 11:51:19;;;;;;;5.03;1.60;;;27.00;91.40;;;;;;4823836;29;20058;-61
2022/06/18 11:54:15;;;;;;;5.28;1.60;;;27.20;91.70;;;;;;4824791;29;20047;-61
2022/06/18 11:57:15;;;;;;;3.50;1.33;;;27.30;90.90;;;;;;4824751;29;20054;-61
2022/06/18 11:59:50;;;;;;;5.10;1.63;;;27.40;91.00;;;;;;4824479;29;20489;-60
2022/06/18 12:02:26;;;;;;;3.72;1.50;;;27.30;90.40;;;;;;4824421;29;20058;-60
2022/06/18 12:05:04;;;;;;;3.95;1.33;;;27.10;90.70;;;;;;4824309;29;20122;-63
2022/06/18 12:07:40;;;;;;;4.25;1.35;;;27.00;90.70;;;;;;4824260;29;20585;-60
2022/06/18 12:10:15;;;;;;;5.72;1.50;;;27.00;91.00;;;;;;4824364;29;20062;-60
2022/06/18 12:12:51;;;;;;;5.00;1.60;;;26.80;90.80;;;;;;4824305;29;20048;-61
2022/06/18 12:15:52;;;;;;;4.90;1.65;;;26.60;90.80;;;;;;4824393;29;20061;-63
2022/06/18 12:18:23;;;;;;;5.53;1.70;;;26.30;91.00;;;;;;4824510;29;20050;-60
2022/06/18 12:21:21;;;;;;;5.38;1.65;;;26.20;91.40;;;;;;4807896;29;20042;-60
2022/06/18 12:24:19;;;;;;;6.93;1.63;;;26.20;92.00;;;;;;4783150;29;20480;-61
2022/06/18 12:27:07;;;;;;;3.85;1.50;;;26.40;91.60;;;;;;4814121;29;20529;-60
2022/06/18 12:29:32;;;;;;;6.32;1.50;;;26.60;91.50;;;;;;4807378;29;20054;-61
2022/06/18 12:32:20;;;;;;;6.38;1.90;;;26.50;91.50;;;;;;4807657;29;20050;-61
2022/06/18 12:35:06;;;;;;;5.63;2.15;;;26.30;92.00;;;;;;4823936;29;20054;-61
2022/06/18 12:38:04;;;;;;;6.35;2.22;;;25.70;91.30;;;;;;4824150;29;20092;-61
2022/06/18 12:40:41;;;;;;;6.88;1.80;;;25.60;91.50;;;;;;4823900;29;20111;-61
2022/06/18 12:43:25;;;;;;;7.43;1.80;;;25.40;92.00;;;;;;4807132;29;20350;-62
2022/06/18 12:45:55;;;;;;;;;;;25.40;91.70;;;;;;4824225;29;20166;-60
2022/06/18 12:48:32;;;;;;;6.35;1.90;;;25.50;91.70;;;;;;4823785;29;19932;-61
2022/06/18 12:51:28;;;;;;;5.90;1.73;;;25.50;91.60;;;;;;4823085;29;20051;-60
2022/06/18 12:54:28;;;;;;;6.57;1.63;;;25.50;91.70;;;;;;4807466;29;20094;-60
2022/06/18 12:57:19;;;;;;;6.78;1.88;;;25.40;91.20;;;;;;4823500;29;20050;-60
2022/06/18 13:00:06;;;;;;;8.30;1.90;;;25.30;91.70;;;;;;4807307;29;20181;-61
2022/06/18 13:02:45;;;;;;;6.97;2.50;;;25.10;91.40;;;;;;4807654;29;20058;-60
2022/06/18 13:05:28;;;;;;;9.05;2.00;;;25.10;91.60;;;;;;4823297;29;20050;-60
2022/06/18 13:08:18;;;;;;;7.47;2.10;;;25.10;91.50;;;;;;4823699;29;20054;-61
2022/06/18 13:10:51;;;;;;;8.25;2.15;;;25.10;91.00;;;;;;4785756;29;20063;-60
2022/06/18 13:13:31;;;;;;;5.65;1.63;;;25.00;90.90;;;;;;4823072;29;20353;-62
2022/06/18 13:16:04;;;;;;;4.60;1.92;;;25.00;90.70;;;;;;4806079;29;20137;-62
2022/06/18 13:18:36;;;;;;;6.93;1.80;;;25.00;90.80;;;;;;4823267;29;20054;-61
2022/06/18 13:21:05;;;;;;;11.05;1.88;;;25.10;90.50;;;;;;4806227;29;20115;-60